sensor_id;sensor_type;location;lat;lon;timestamp;temperature;humidity
827;DHT22;395;48.132;11.608;2023-06-26T00:01:31;20.60;1.00
827;DHT22;395;48.132;11.608;2023-06-26T00:03:57;20.60;1.00
827;DHT22;395;48.132;11.608;2023-06-26T00:06:25;20.50;1.00
827;DHT22;395;48.132;11.608;2023-06-26T00:08:52;20.60;1.00
827;DHT22;395;48.132;11.608;2023-06-26T00:11:19;20.50;1.00
827;DHT22;395;48.132;11.608;2023-06-26T00:13:44;20.50;1.00
827;DHT22;395;48.132;11.608;2023-06-26T00:16:10;20.50;1.00
827;DHT22;395;48.132;11.608;2023-06-26T00:18:35;20.40;1.00
827;DHT22;395;48.132;11.608;2023-06-26T00:21:01;20.40;1.00
827;DHT22;395;48.132;11.608;2023-06-26T00:23:27;20.40;1.00
827;DHT22;395;48.132;11.608;2023-06-26T00:25:57;20.30;1.00
827;DHT22;395;48.132;11.608;2023-06-26T00:28:23;20.20;1.00
827;DHT22;395;48.132;11.608;2023-06-26T00:30:48;20.30;1.00
827;DHT22;395;48.132;11.608;2023-06-26T00:33:14;20.20;1.00
827;DHT22;395;48.132;11.608;2023-06-26T00:35:40;20.20;1.00
827;DHT22;395;48.132;11.608;2023-06-26T00:38:06;20.20;1.00
827;DHT22;395;48.132;11.608;2023-06-26T00:40:32;20.30;1.00
827;DHT22;395;48.132;11.608;2023-06-26T00:42:57;20.30;1.00
827;DHT22;395;48.132;11.608;2023-06-26T00:45:23;20.30;1.00
827;DHT22;395;48.132;11.608;2023-06-26T00:47:49;20.40;1.00
827;DHT22;395;48.132;11.608;2023-06-26T00:50:14;20.30;1.00
827;DHT22;395;48.132;11.608;2023-06-26T00:52:41;20.30;1.00
827;DHT22;395;48.132;11.608;2023-06-26T00:55:07;20.30;1.00
827;DHT22;395;48.132;11.608;2023-06-26T00:57:34;20.30;1.00
827;DHT22;395;48.132;11.608;2023-06-26T01:00:01;20.30;1.00
827;DHT22;395;48.132;11.608;2023-06-26T01:02:26;20.20;1.00
827;DHT22;395;48.132;11.608;2023-06-26T01:04:59;20.30;1.00
827;DHT22;395;48.132;11.608;2023-06-26T01:07:29;20.20;1.00
827;DHT22;395;48.132;11.608;2023-06-26T01:09:57;20.30;1.00
827;DHT22;395;48.132;11.608;2023-06-26T01:12:24;20.20;1.00
827;DHT22;395;48.132;11.608;2023-06-26T01:14:49;20.20;1.00
827;DHT22;395;48.132;11.608;2023-06-26T01:17:15;20.20;1.00
827;DHT22;395;48.132;11.608;2023-06-26T01:19:42;20.10;1.00
827;DHT22;395;48.132;11.608;2023-06-26T01:22:38;20.10;1.00
827;DHT22;395;48.132;11.608;2023-06-26T01:25:33;20.10;1.00
827;DHT22;395;48.132;11.608;2023-06-26T01:28:05;20.00;1.00
827;DHT22;395;48.132;11.608;2023-06-26T01:30:32;20.00;1.00
827;DHT22;395;48.132;11.608;2023-06-26T01:32:59;20.10;1.00
827;DHT22;395;48.132;11.608;2023-06-26T01:35:26;20.00;1.00
827;DHT22;395;48.132;11.608;2023-06-26T01:37:52;20.00;1.00
827;DHT22;395;48.132;11.608;2023-06-26T01:40:18;19.90;1.00
827;DHT22;395;48.132;11.608;2023-06-26T01:42:44;19.90;1.00
827;DHT22;395;48.132;11.608;2023-06-26T01:45:24;19.80;1.00
827;DHT22;395;48.132;11.608;2023-06-26T01:47:52;19.80;1.00
827;DHT22;395;48.132;11.608;2023-06-26T01:50:23;19.80;1.00
827;DHT22;395;48.132;11.608;2023-06-26T01:53:02;19.80;1.00
827;DHT22;395;48.132;11.608;2023-06-26T01:56:05;19.70;1.00
827;DHT22;395;48.132;11.608;2023-06-26T01:58:32;19.70;1.00
827;DHT22;395;48.132;11.608;2023-06-26T02:00:58;19.70;1.00
827;DHT22;395;48.132;11.608;2023-06-26T02:03:24;19.60;1.00
827;DHT22;395;48.132;11.608;2023-06-26T02:05:50;19.60;1.00
827;DHT22;395;48.132;11.608;2023-06-26T02:08:16;19.60;1.00
827;DHT22;395;48.132;11.608;2023-06-26T02:10:42;19.60;1.00
827;DHT22;395;48.132;11.608;2023-06-26T02:13:08;19.60;1.00
827;DHT22;395;48.132;11.608;2023-06-26T02:15:33;19.60;1.00
827;DHT22;395;48.132;11.608;2023-06-26T02:17:59;19.60;1.00
827;DHT22;395;48.132;11.608;2023-06-26T02:20:25;19.60;1.00
827;DHT22;395;48.132;11.608;2023-06-26T02:22:50;19.60;1.00
827;DHT22;395;48.132;11.608;2023-06-26T02:25:17;19.50;1.00
827;DHT22;395;48.132;11.608;2023-06-26T02:27:43;19.50;1.00
827;DHT22;395;48.132;11.608;2023-06-26T02:30:09;19.50;1.00
827;DHT22;395;48.132;11.608;2023-06-26T02:32:35;19.40;1.00
827;DHT22;395;48.132;11.608;2023-06-26T02:35:01;19.40;1.00
827;DHT22;395;48.132;11.608;2023-06-26T02:37:27;19.40;1.00
827;DHT22;395;48.132;11.608;2023-06-26T02:39:52;19.40;1.00
827;DHT22;395;48.132;11.608;2023-06-26T02:42:18;19.40;1.00
827;DHT22;395;48.132;11.608;2023-06-26T02:44:43;19.40;1.00
827;DHT22;395;48.132;11.608;2023-06-26T02:47:09;19.40;1.00
827;DHT22;395;48.132;11.608;2023-06-26T02:49:35;19.40;1.00
827;DHT22;395;48.132;11.608;2023-06-26T02:52:00;19.30;1.00
827;DHT22;395;48.132;11.608;2023-06-26T02:54:26;19.30;1.00
827;DHT22;395;48.132;11.608;2023-06-26T02:56:52;19.30;1.00
827;DHT22;395;48.132;11.608;2023-06-26T02:59:18;19.30;1.00
827;DHT22;395;48.132;11.608;2023-06-26T03:01:43;19.30;1.00
827;DHT22;395;48.132;11.608;2023-06-26T03:04:09;19.20;1.00
827;DHT22;395;48.132;11.608;2023-06-26T03:06:35;19.20;1.00
827;DHT22;395;48.132;11.608;2023-06-26T03:09:01;19.20;1.00
827;DHT22;395;48.132;11.608;2023-06-26T03:11:28;19.10;1.00
827;DHT22;395;48.132;11.608;2023-06-26T03:13:54;19.10;1.00
827;DHT22;395;48.132;11.608;2023-06-26T03:16:19;19.00;1.00
827;DHT22;395;48.132;11.608;2023-06-26T03:18:45;19.10;1.00
827;DHT22;395;48.132;11.608;2023-06-26T03:21:11;19.10;1.00
827;DHT22;395;48.132;11.608;2023-06-26T03:23:36;19.00;1.00
827;DHT22;395;48.132;11.608;2023-06-26T03:26:02;19.10;1.00
827;DHT22;395;48.132;11.608;2023-06-26T03:28:27;19.10;1.00
827;DHT22;395;48.132;11.608;2023-06-26T03:30:53;19.10;1.00
827;DHT22;395;48.132;11.608;2023-06-26T03:33:19;19.00;1.00
827;DHT22;395;48.132;11.608;2023-06-26T03:35:44;19.10;1.00
827;DHT22;395;48.132;11.608;2023-06-26T03:38:10;19.10;1.00
827;DHT22;395;48.132;11.608;2023-06-26T03:40:36;19.10;1.00
827;DHT22;395;48.132;11.608;2023-06-26T03:43:01;19.10;1.00
827;DHT22;395;48.132;11.608;2023-06-26T03:45:28;19.10;1.00
827;DHT22;395;48.132;11.608;2023-06-26T03:47:53;19.10;1.00
827;DHT22;395;48.132;11.608;2023-06-26T03:50:19;19.10;1.00
827;DHT22;395;48.132;11.608;2023-06-26T03:52:45;19.00;1.00
827;DHT22;395;48.132;11.608;2023-06-26T03:55:11;19.00;1.00
827;DHT22;395;48.132;11.608;2023-06-26T03:57:37;19.00;1.00
827;DHT22;395;48.132;11.608;2023-06-26T04:00:03;19.10;1.00
827;DHT22;395;48.132;11.608;2023-06-26T04:02:34;19.10;1.00
827;DHT22;395;48.132;11.608;2023-06-26T04:05:00;19.10;1.00
827;DHT22;395;48.132;11.608;2023-06-26T04:07:26;19.10;1.00
827;DHT22;395;48.132;11.608;2023-06-26T04:09:51;19.10;1.00
827;DHT22;395;48.132;11.608;2023-06-26T04:12:17;19.10;1.00
827;DHT22;395;48.132;11.608;2023-06-26T04:14:43;19.10;1.00
827;DHT22;395;48.132;11.608;2023-06-26T04:17:09;19.10;1.00
827;DHT22;395;48.132;11.608;2023-06-26T04:19:35;19.10;1.00
827;DHT22;395;48.132;11.608;2023-06-26T04:22:01;19.10;1.00
827;DHT22;395;48.132;11.608;2023-06-26T04:24:27;19.10;1.00
827;DHT22;395;48.132;11.608;2023-06-26T04:26:53;19.10;1.00
827;DHT22;395;48.132;11.608;2023-06-26T04:29:23;19.20;1.00
827;DHT22;395;48.132;11.608;2023-06-26T04:31:51;19.10;1.00
827;DHT22;395;48.132;11.608;2023-06-26T04:34:17;19.20;1.00
827;DHT22;395;48.132;11.608;2023-06-26T04:36:43;19.30;1.00
827;DHT22;395;48.132;11.608;2023-06-26T04:39:13;19.30;1.00
827;DHT22;395;48.132;11.608;2023-06-26T04:41:40;19.40;1.00
827;DHT22;395;48.132;11.608;2023-06-26T04:44:06;19.40;1.00
827;DHT22;395;48.132;11.608;2023-06-26T04:46:32;19.40;1.00
827;DHT22;395;48.132;11.608;2023-06-26T04:48:57;19.40;1.00
827;DHT22;395;48.132;11.608;2023-06-26T04:51:27;19.40;1.00
827;DHT22;395;48.132;11.608;2023-06-26T04:53:54;19.50;1.00
827;DHT22;395;48.132;11.608;2023-06-26T04:56:20;19.60;1.00
827;DHT22;395;48.132;11.608;2023-06-26T04:58:45;19.60;1.00
827;DHT22;395;48.132;11.608;2023-06-26T05:01:11;19.60;1.00
827;DHT22;395;48.132;11.608;2023-06-26T05:03:39;19.70;1.00
827;DHT22;395;48.132;11.608;2023-06-26T05:06:05;19.70;1.00
827;DHT22;395;48.132;11.608;2023-06-26T05:08:30;19.80;1.00
827;DHT22;395;48.132;11.608;2023-06-26T05:10:56;19.90;1.00
827;DHT22;395;48.132;11.608;2023-06-26T05:13:25;19.90;1.00
827;DHT22;395;48.132;11.608;2023-06-26T05:15:52;19.90;1.00
827;DHT22;395;48.132;11.608;2023-06-26T05:18:18;19.90;1.00
827;DHT22;395;48.132;11.608;2023-06-26T05:20:44;20.00;1.00
827;DHT22;395;48.132;11.608;2023-06-26T05:23:11;20.10;1.00
827;DHT22;395;48.132;11.608;2023-06-26T05:25:38;20.10;1.00
827;DHT22;395;48.132;11.608;2023-06-26T05:28:04;20.10;1.00
827;DHT22;395;48.132;11.608;2023-06-26T05:30:31;20.20;1.00
827;DHT22;395;48.132;11.608;2023-06-26T05:33:00;20.30;1.00
827;DHT22;395;48.132;11.608;2023-06-26T05:35:28;20.40;1.00
827;DHT22;395;48.132;11.608;2023-06-26T05:37:55;20.50;1.00
827;DHT22;395;48.132;11.608;2023-06-26T05:40:22;20.50;1.00
827;DHT22;395;48.132;11.608;2023-06-26T05:42:48;20.50;1.00
827;DHT22;395;48.132;11.608;2023-06-26T05:45:14;20.60;1.00
827;DHT22;395;48.132;11.608;2023-06-26T05:47:40;20.70;1.00
827;DHT22;395;48.132;11.608;2023-06-26T05:50:09;20.80;1.00
827;DHT22;395;48.132;11.608;2023-06-26T05:52:36;20.90;1.00
827;DHT22;395;48.132;11.608;2023-06-26T05:55:02;21.00;1.00
827;DHT22;395;48.132;11.608;2023-06-26T05:57:29;21.00;1.00
827;DHT22;395;48.132;11.608;2023-06-26T05:59:55;21.10;1.00
827;DHT22;395;48.132;11.608;2023-06-26T06:02:21;21.20;1.00
827;DHT22;395;48.132;11.608;2023-06-26T06:04:47;21.20;1.00
827;DHT22;395;48.132;11.608;2023-06-26T06:07:13;21.30;1.00
827;DHT22;395;48.132;11.608;2023-06-26T06:09:39;21.40;1.00
827;DHT22;395;48.132;11.608;2023-06-26T06:12:05;21.40;1.00
827;DHT22;395;48.132;11.608;2023-06-26T06:14:34;21.50;1.00
827;DHT22;395;48.132;11.608;2023-06-26T06:17:01;21.50;1.00
827;DHT22;395;48.132;11.608;2023-06-26T06:19:26;21.50;1.00
827;DHT22;395;48.132;11.608;2023-06-26T06:21:52;21.50;1.00
827;DHT22;395;48.132;11.608;2023-06-26T06:24:18;21.60;1.00
827;DHT22;395;48.132;11.608;2023-06-26T06:26:43;21.60;1.00
827;DHT22;395;48.132;11.608;2023-06-26T06:29:09;21.70;1.00
827;DHT22;395;48.132;11.608;2023-06-26T06:31:35;21.70;1.00
827;DHT22;395;48.132;11.608;2023-06-26T06:34:00;21.80;1.00
827;DHT22;395;48.132;11.608;2023-06-26T06:36:27;21.80;1.00
827;DHT22;395;48.132;11.608;2023-06-26T06:38:52;21.90;1.00
827;DHT22;395;48.132;11.608;2023-06-26T06:41:19;21.90;1.00
827;DHT22;395;48.132;11.608;2023-06-26T06:43:45;22.00;1.00
827;DHT22;395;48.132;11.608;2023-06-26T06:46:11;22.00;1.00
827;DHT22;395;48.132;11.608;2023-06-26T06:48:37;22.10;1.00
827;DHT22;395;48.132;11.608;2023-06-26T06:51:02;22.10;1.00
827;DHT22;395;48.132;11.608;2023-06-26T06:53:28;22.20;1.00
827;DHT22;395;48.132;11.608;2023-06-26T06:55:54;22.30;1.00
827;DHT22;395;48.132;11.608;2023-06-26T06:58:20;22.40;1.00
827;DHT22;395;48.132;11.608;2023-06-26T07:00:46;22.50;1.00
827;DHT22;395;48.132;11.608;2023-06-26T07:03:11;22.50;1.00
827;DHT22;395;48.132;11.608;2023-06-26T07:05:37;22.60;1.00
827;DHT22;395;48.132;11.608;2023-06-26T07:08:03;22.70;1.00
827;DHT22;395;48.132;11.608;2023-06-26T07:10:29;22.80;1.00
827;DHT22;395;48.132;11.608;2023-06-26T07:12:55;22.80;1.00
827;DHT22;395;48.132;11.608;2023-06-26T07:15:21;22.90;1.00
827;DHT22;395;48.132;11.608;2023-06-26T07:17:46;23.00;1.00
827;DHT22;395;48.132;11.608;2023-06-26T07:20:12;23.00;1.00
827;DHT22;395;48.132;11.608;2023-06-26T07:22:41;23.00;1.00
827;DHT22;395;48.132;11.608;2023-06-26T07:25:07;23.10;1.00
827;DHT22;395;48.132;11.608;2023-06-26T07:27:39;23.10;1.00
827;DHT22;395;48.132;11.608;2023-06-26T07:30:06;23.20;1.00
827;DHT22;395;48.132;11.608;2023-06-26T07:32:34;23.20;1.00
827;DHT22;395;48.132;11.608;2023-06-26T07:35:00;23.30;1.00
827;DHT22;395;48.132;11.608;2023-06-26T07:37:25;23.40;1.00
827;DHT22;395;48.132;11.608;2023-06-26T07:39:51;23.40;1.00
827;DHT22;395;48.132;11.608;2023-06-26T07:42:16;23.50;1.00
827;DHT22;395;48.132;11.608;2023-06-26T07:44:42;23.60;1.00
827;DHT22;395;48.132;11.608;2023-06-26T07:47:09;23.60;1.00
827;DHT22;395;48.132;11.608;2023-06-26T07:49:34;23.70;1.00
827;DHT22;395;48.132;11.608;2023-06-26T07:52:00;23.70;1.00
827;DHT22;395;48.132;11.608;2023-06-26T07:54:26;23.80;1.00
827;DHT22;395;48.132;11.608;2023-06-26T07:59:20;23.80;1.00
827;DHT22;395;48.132;11.608;2023-06-26T08:01:47;23.90;1.00
827;DHT22;395;48.132;11.608;2023-06-26T08:04:13;23.90;1.00
827;DHT22;395;48.132;11.608;2023-06-26T08:06:38;24.00;1.00
827;DHT22;395;48.132;11.608;2023-06-26T08:09:06;24.00;1.00
827;DHT22;395;48.132;11.608;2023-06-26T08:11:33;24.00;1.00
827;DHT22;395;48.132;11.608;2023-06-26T08:13:59;24.10;1.00
827;DHT22;395;48.132;11.608;2023-06-26T08:16:24;24.10;1.00
827;DHT22;395;48.132;11.608;2023-06-26T08:18:50;24.10;1.00
827;DHT22;395;48.132;11.608;2023-06-26T08:21:16;24.20;1.00
827;DHT22;395;48.132;11.608;2023-06-26T08:23:42;24.20;1.00
827;DHT22;395;48.132;11.608;2023-06-26T08:26:07;24.30;1.00
827;DHT22;395;48.132;11.608;2023-06-26T08:28:33;24.30;1.00
827;DHT22;395;48.132;11.608;2023-06-26T08:30:59;24.40;1.00
827;DHT22;395;48.132;11.608;2023-06-26T08:33:25;24.50;1.00
827;DHT22;395;48.132;11.608;2023-06-26T08:35:51;24.50;1.00
827;DHT22;395;48.132;11.608;2023-06-26T08:38:16;24.50;1.00
827;DHT22;395;48.132;11.608;2023-06-26T08:40:42;24.60;1.00
827;DHT22;395;48.132;11.608;2023-06-26T08:43:08;24.70;1.00
827;DHT22;395;48.132;11.608;2023-06-26T08:45:33;24.70;1.00
827;DHT22;395;48.132;11.608;2023-06-26T08:48:00;24.90;1.00
827;DHT22;395;48.132;11.608;2023-06-26T08:50:29;24.70;1.00
827;DHT22;395;48.132;11.608;2023-06-26T08:55:31;24.80;1.00
827;DHT22;395;48.132;11.608;2023-06-26T08:57:59;24.90;1.00
827;DHT22;395;48.132;11.608;2023-06-26T09:00:25;24.90;1.00
827;DHT22;395;48.132;11.608;2023-06-26T09:02:50;25.00;1.00
827;DHT22;395;48.132;11.608;2023-06-26T09:05:17;25.10;1.00
827;DHT22;395;48.132;11.608;2023-06-26T09:07:43;25.20;1.00
827;DHT22;395;48.132;11.608;2023-06-26T09:10:08;25.20;1.00
827;DHT22;395;48.132;11.608;2023-06-26T09:12:34;25.20;1.00
827;DHT22;395;48.132;11.608;2023-06-26T09:15:01;25.20;1.00
827;DHT22;395;48.132;11.608;2023-06-26T09:17:33;25.20;1.00
827;DHT22;395;48.132;11.608;2023-06-26T09:20:04;25.40;1.00
827;DHT22;395;48.132;11.608;2023-06-26T09:22:33;25.40;1.00
827;DHT22;395;48.132;11.608;2023-06-26T09:24:58;25.50;1.00
827;DHT22;395;48.132;11.608;2023-06-26T09:27:25;25.50;1.00
827;DHT22;395;48.132;11.608;2023-06-26T09:29:51;25.50;1.00
827;DHT22;395;48.132;11.608;2023-06-26T09:32:16;25.70;1.00
827;DHT22;395;48.132;11.608;2023-06-26T09:34:43;25.80;1.00
827;DHT22;395;48.132;11.608;2023-06-26T09:37:12;25.80;1.00
827;DHT22;395;48.132;11.608;2023-06-26T09:39:39;25.80;1.00
827;DHT22;395;48.132;11.608;2023-06-26T09:42:04;25.80;1.00
827;DHT22;395;48.132;11.608;2023-06-26T09:44:33;25.80;1.00
827;DHT22;395;48.132;11.608;2023-06-26T09:46:59;25.90;1.00
827;DHT22;395;48.132;11.608;2023-06-26T09:49:27;25.90;1.00
827;DHT22;395;48.132;11.608;2023-06-26T09:51:53;26.00;1.00
827;DHT22;395;48.132;11.608;2023-06-26T09:54:21;26.00;1.00
827;DHT22;395;48.132;11.608;2023-06-26T09:56:47;26.10;1.00
827;DHT22;395;48.132;11.608;2023-06-26T09:59:13;26.20;1.00
827;DHT22;395;48.132;11.608;2023-06-26T10:01:42;26.20;1.00
827;DHT22;395;48.132;11.608;2023-06-26T10:04:10;26.20;1.00
827;DHT22;395;48.132;11.608;2023-06-26T10:06:36;26.20;1.00
827;DHT22;395;48.132;11.608;2023-06-26T10:09:03;26.30;1.00
827;DHT22;395;48.132;11.608;2023-06-26T10:14:21;26.50;1.00
827;DHT22;395;48.132;11.608;2023-06-26T10:16:49;26.60;1.00
827;DHT22;395;48.132;11.608;2023-06-26T10:19:18;26.70;1.00
827;DHT22;395;48.132;11.608;2023-06-26T10:21:51;26.80;1.00
827;DHT22;395;48.132;11.608;2023-06-26T10:24:18;26.80;1.00
827;DHT22;395;48.132;11.608;2023-06-26T10:26:45;26.90;1.00
827;DHT22;395;48.132;11.608;2023-06-26T10:29:15;26.90;1.00
827;DHT22;395;48.132;11.608;2023-06-26T10:31:43;26.90;1.00
827;DHT22;395;48.132;11.608;2023-06-26T10:34:11;26.90;1.00
827;DHT22;395;48.132;11.608;2023-06-26T10:36:37;27.00;1.00
827;DHT22;395;48.132;11.608;2023-06-26T10:39:06;27.00;1.00
827;DHT22;395;48.132;11.608;2023-06-26T10:41:41;27.10;1.00
827;DHT22;395;48.132;11.608;2023-06-26T10:44:16;27.20;1.00
827;DHT22;395;48.132;11.608;2023-06-26T10:46:55;27.40;1.00
827;DHT22;395;48.132;11.608;2023-06-26T10:49:28;27.50;1.00
827;DHT22;395;48.132;11.608;2023-06-26T10:51:55;27.60;1.00
827;DHT22;395;48.132;11.608;2023-06-26T10:54:28;27.60;1.00
827;DHT22;395;48.132;11.608;2023-06-26T10:56:55;27.60;1.00
827;DHT22;395;48.132;11.608;2023-06-26T10:59:25;27.60;1.00
827;DHT22;395;48.132;11.608;2023-06-26T11:05:00;27.60;1.00
827;DHT22;395;48.132;11.608;2023-06-26T11:07:26;27.60;1.00
827;DHT22;395;48.132;11.608;2023-06-26T11:10:00;27.70;1.00
827;DHT22;395;48.132;11.608;2023-06-26T11:15:08;27.80;1.00
827;DHT22;395;48.132;11.608;2023-06-26T11:17:35;27.90;1.00
827;DHT22;395;48.132;11.608;2023-06-26T11:20:03;27.90;1.00
827;DHT22;395;48.132;11.608;2023-06-26T11:22:30;28.00;1.00
827;DHT22;395;48.132;11.608;2023-06-26T11:24:59;27.90;1.00
827;DHT22;395;48.132;11.608;2023-06-26T11:27:42;28.00;1.00
827;DHT22;395;48.132;11.608;2023-06-26T11:30:22;28.00;1.00
827;DHT22;395;48.132;11.608;2023-06-26T11:32:48;28.00;1.00
827;DHT22;395;48.132;11.608;2023-06-26T11:35:21;28.00;1.00
827;DHT22;395;48.132;11.608;2023-06-26T11:37:47;27.90;1.00
827;DHT22;395;48.132;11.608;2023-06-26T11:40:19;27.90;1.00
827;DHT22;395;48.132;11.608;2023-06-26T11:42:45;28.00;1.00
827;DHT22;395;48.132;11.608;2023-06-26T11:45:11;28.10;1.00
827;DHT22;395;48.132;11.608;2023-06-26T11:47:39;28.20;1.00
827;DHT22;395;48.132;11.608;2023-06-26T11:50:05;28.20;1.00
827;DHT22;395;48.132;11.608;2023-06-26T11:52:33;28.20;1.00
827;DHT22;395;48.132;11.608;2023-06-26T11:54:58;28.30;1.00
827;DHT22;395;48.132;11.608;2023-06-26T11:57:24;28.30;1.00
827;DHT22;395;48.132;11.608;2023-06-26T11:59:50;28.40;1.00
827;DHT22;395;48.132;11.608;2023-06-26T12:02:17;28.40;1.00
827;DHT22;395;48.132;11.608;2023-06-26T12:04:44;28.60;1.00
827;DHT22;395;48.132;11.608;2023-06-26T12:07:11;28.70;1.00
827;DHT22;395;48.132;11.608;2023-06-26T12:09:47;28.80;1.00
827;DHT22;395;48.132;11.608;2023-06-26T12:12:15;28.80;1.00
827;DHT22;395;48.132;11.608;2023-06-26T12:14:41;28.80;1.00
827;DHT22;395;48.132;11.608;2023-06-26T12:17:12;28.90;1.00
827;DHT22;395;48.132;11.608;2023-06-26T12:19:42;29.00;1.00
827;DHT22;395;48.132;11.608;2023-06-26T12:22:08;29.00;1.00
827;DHT22;395;48.132;11.608;2023-06-26T12:24:37;29.10;1.00
827;DHT22;395;48.132;11.608;2023-06-26T12:27:08;29.20;1.00
827;DHT22;395;48.132;11.608;2023-06-26T12:29:35;29.10;1.00
827;DHT22;395;48.132;11.608;2023-06-26T12:32:01;29.10;1.00
827;DHT22;395;48.132;11.608;2023-06-26T12:34:30;29.00;1.00
827;DHT22;395;48.132;11.608;2023-06-26T12:37:04;29.10;1.00
827;DHT22;395;48.132;11.608;2023-06-26T12:39:45;29.10;1.00
827;DHT22;395;48.132;11.608;2023-06-26T12:42:17;29.10;1.00
827;DHT22;395;48.132;11.608;2023-06-26T12:44:43;29.20;1.00
827;DHT22;395;48.132;11.608;2023-06-26T12:47:09;29.20;1.00
827;DHT22;395;48.132;11.608;2023-06-26T12:49:39;29.30;1.00
827;DHT22;395;48.132;11.608;2023-06-26T12:52:09;29.50;1.00
827;DHT22;395;48.132;11.608;2023-06-26T12:54:35;29.50;1.00
827;DHT22;395;48.132;11.608;2023-06-26T12:57:01;29.50;1.00
827;DHT22;395;48.132;11.608;2023-06-26T12:59:30;29.50;1.00
827;DHT22;395;48.132;11.608;2023-06-26T13:01:56;29.60;1.00
827;DHT22;395;48.132;11.608;2023-06-26T13:04:22;29.60;1.00
827;DHT22;395;48.132;11.608;2023-06-26T13:06:47;29.70;1.00
827;DHT22;395;48.132;11.608;2023-06-26T13:09:13;29.70;1.00
827;DHT22;395;48.132;11.608;2023-06-26T13:11:39;29.70;1.00
827;DHT22;395;48.132;11.608;2023-06-26T13:14:04;29.60;1.00
827;DHT22;395;48.132;11.608;2023-06-26T13:16:30;29.60;1.00
827;DHT22;395;48.132;11.608;2023-06-26T13:18:58;29.70;1.00
827;DHT22;395;48.132;11.608;2023-06-26T13:21:25;29.80;1.00
827;DHT22;395;48.132;11.608;2023-06-26T13:23:50;29.90;1.00
827;DHT22;395;48.132;11.608;2023-06-26T13:26:16;30.00;1.00
827;DHT22;395;48.132;11.608;2023-06-26T13:28:42;30.00;1.00
827;DHT22;395;48.132;11.608;2023-06-26T13:31:07;29.90;1.00
827;DHT22;395;48.132;11.608;2023-06-26T13:33:33;30.00;1.00
827;DHT22;395;48.132;11.608;2023-06-26T13:35:59;30.00;1.00
827;DHT22;395;48.132;11.608;2023-06-26T13:38:25;30.10;1.00
827;DHT22;395;48.132;11.608;2023-06-26T13:40:54;30.10;1.00
827;DHT22;395;48.132;11.608;2023-06-26T13:43:21;30.30;1.00
827;DHT22;395;48.132;11.608;2023-06-26T13:45:48;30.50;1.00
827;DHT22;395;48.132;11.608;2023-06-26T13:48:14;30.50;1.00
827;DHT22;395;48.132;11.608;2023-06-26T13:50:39;30.60;1.00
827;DHT22;395;48.132;11.608;2023-06-26T13:53:05;30.40;1.00
827;DHT22;395;48.132;11.608;2023-06-26T13:55:32;30.20;1.00
827;DHT22;395;48.132;11.608;2023-06-26T13:57:58;30.10;1.00
827;DHT22;395;48.132;11.608;2023-06-26T14:00:24;29.90;1.00
827;DHT22;395;48.132;11.608;2023-06-26T14:02:51;29.60;1.00
827;DHT22;395;48.132;11.608;2023-06-26T14:05:16;29.50;1.00
827;DHT22;395;48.132;11.608;2023-06-26T14:07:47;29.60;1.00
827;DHT22;395;48.132;11.608;2023-06-26T14:10:13;29.60;1.00
827;DHT22;395;48.132;11.608;2023-06-26T14:12:39;29.70;1.00
827;DHT22;395;48.132;11.608;2023-06-26T14:15:05;29.80;1.00
827;DHT22;395;48.132;11.608;2023-06-26T14:17:31;29.80;1.00
827;DHT22;395;48.132;11.608;2023-06-26T14:19:58;29.90;1.00
827;DHT22;395;48.132;11.608;2023-06-26T14:22:24;30.00;1.00
827;DHT22;395;48.132;11.608;2023-06-26T14:24:50;30.00;1.00
827;DHT22;395;48.132;11.608;2023-06-26T14:27:16;30.10;1.00
827;DHT22;395;48.132;11.608;2023-06-26T14:29:41;30.10;1.00
827;DHT22;395;48.132;11.608;2023-06-26T14:32:07;30.10;1.00
827;DHT22;395;48.132;11.608;2023-06-26T14:34:33;30.10;1.00
827;DHT22;395;48.132;11.608;2023-06-26T14:36:59;30.10;1.00
827;DHT22;395;48.132;11.608;2023-06-26T14:39:25;30.10;1.00
827;DHT22;395;48.132;11.608;2023-06-26T14:41:50;30.10;1.00
827;DHT22;395;48.132;11.608;2023-06-26T14:44:16;30.20;1.00
827;DHT22;395;48.132;11.608;2023-06-26T14:46:42;30.40;1.00
827;DHT22;395;48.132;11.608;2023-06-26T14:49:08;30.60;1.00
827;DHT22;395;48.132;11.608;2023-06-26T14:51:34;30.70;1.00
827;DHT22;395;48.132;11.608;2023-06-26T14:54:00;30.60;1.00
827;DHT22;395;48.132;11.608;2023-06-26T14:56:26;30.50;1.00
827;DHT22;395;48.132;11.608;2023-06-26T14:58:52;30.50;1.00
827;DHT22;395;48.132;11.608;2023-06-26T15:01:19;30.50;1.00
827;DHT22;395;48.132;11.608;2023-06-26T15:03:46;30.60;1.00
827;DHT22;395;48.132;11.608;2023-06-26T15:06:11;30.50;1.00
827;DHT22;395;48.132;11.608;2023-06-26T15:08:37;30.40;1.00
827;DHT22;395;48.132;11.608;2023-06-26T15:11:03;30.60;1.00
827;DHT22;395;48.132;11.608;2023-06-26T15:13:29;30.70;1.00
827;DHT22;395;48.132;11.608;2023-06-26T15:15:54;30.70;1.00
827;DHT22;395;48.132;11.608;2023-06-26T15:18:20;30.70;1.00
827;DHT22;395;48.132;11.608;2023-06-26T15:20:47;30.90;1.00
827;DHT22;395;48.132;11.608;2023-06-26T15:23:12;31.20;1.00
827;DHT22;395;48.132;11.608;2023-06-26T15:25:38;31.30;1.00
827;DHT22;395;48.132;11.608;2023-06-26T15:28:05;31.00;1.00
827;DHT22;395;48.132;11.608;2023-06-26T15:30:31;30.80;1.00
827;DHT22;395;48.132;11.608;2023-06-26T15:32:56;30.70;1.00
827;DHT22;395;48.132;11.608;2023-06-26T15:35:22;30.50;1.00
827;DHT22;395;48.132;11.608;2023-06-26T15:37:48;30.20;1.00
827;DHT22;395;48.132;11.608;2023-06-26T15:40:15;30.00;1.00
827;DHT22;395;48.132;11.608;2023-06-26T15:42:49;29.80;1.00
827;DHT22;395;48.132;11.608;2023-06-26T15:45:15;29.80;1.00
827;DHT22;395;48.132;11.608;2023-06-26T15:47:43;29.60;1.00
827;DHT22;395;48.132;11.608;2023-06-26T15:50:09;29.40;1.00
827;DHT22;395;48.132;11.608;2023-06-26T15:52:35;29.30;1.00
827;DHT22;395;48.132;11.608;2023-06-26T15:55:01;29.30;1.00
827;DHT22;395;48.132;11.608;2023-06-26T15:57:27;29.20;1.00
827;DHT22;395;48.132;11.608;2023-06-26T15:59:52;28.90;1.00
827;DHT22;395;48.132;11.608;2023-06-26T16:02:18;28.70;1.00
827;DHT22;395;48.132;11.608;2023-06-26T16:04:44;28.60;1.00
827;DHT22;395;48.132;11.608;2023-06-26T16:07:09;28.40;1.00
827;DHT22;395;48.132;11.608;2023-06-26T16:09:35;28.50;1.00
827;DHT22;395;48.132;11.608;2023-06-26T16:12:01;28.30;1.00
827;DHT22;395;48.132;11.608;2023-06-26T16:14:26;28.20;1.00
827;DHT22;395;48.132;11.608;2023-06-26T16:16:52;28.10;1.00
827;DHT22;395;48.132;11.608;2023-06-26T16:19:18;28.00;1.00
827;DHT22;395;48.132;11.608;2023-06-26T16:21:43;27.90;1.00
827;DHT22;395;48.132;11.608;2023-06-26T16:24:09;27.80;1.00
827;DHT22;395;48.132;11.608;2023-06-26T16:26:35;27.80;1.00
827;DHT22;395;48.132;11.608;2023-06-26T16:29:00;27.70;1.00
827;DHT22;395;48.132;11.608;2023-06-26T16:31:26;27.70;1.00
827;DHT22;395;48.132;11.608;2023-06-26T16:33:52;27.60;1.00
827;DHT22;395;48.132;11.608;2023-06-26T16:36:17;27.50;1.00
827;DHT22;395;48.132;11.608;2023-06-26T16:38:43;27.50;1.00
827;DHT22;395;48.132;11.608;2023-06-26T16:41:09;27.40;1.00
827;DHT22;395;48.132;11.608;2023-06-26T16:43:35;27.40;1.00
827;DHT22;395;48.132;11.608;2023-06-26T16:46:01;27.40;1.00